createdAt,value
2023-01-12T00:00:25.083Z,14.70
2023-01-12T00:02:52.012Z,14.50
2023-01-12T00:05:18.883Z,16.08
2023-01-12T00:07:45.734Z,15.55
2023-01-12T00:10:15.582Z,15.02
2023-01-12T00:12:42.454Z,15.60
2023-01-12T00:15:10.043Z,16.33
2023-01-12T00:17:36.872Z,16.63
2023-01-12T00:20:06.308Z,16.15
2023-01-12T00:22:33.145Z,16.35
2023-01-12T00:25:00.009Z,16.15
2023-01-12T00:27:26.877Z,16.55
2023-01-12T00:29:53.762Z,15.68
2023-01-12T00:32:21.396Z,16.05
2023-01-12T00:34:48.348Z,14.15
2023-01-12T00:37:15.782Z,15.00
2023-01-12T00:39:53.123Z,14.90
2023-01-12T00:42:42.373Z,14.32
2023-01-12T00:45:36.588Z,14.40
2023-01-12T00:48:03.520Z,14.80
2023-01-12T00:50:30.359Z,14.18
2023-01-12T00:52:57.543Z,14.85
2023-01-12T00:55:24.457Z,14.02
2023-01-12T00:57:51.304Z,14.57
2023-01-12T01:00:18.587Z,14.85
2023-01-12T01:02:45.809Z,15.48
2023-01-12T01:05:12.656Z,15.88
2023-01-12T01:07:39.522Z,16.48
2023-01-12T01:10:07.292Z,16.30
2023-01-12T01:12:34.127Z,17.10
2023-01-12T01:15:00.988Z,17.05
2023-01-12T01:17:29.282Z,17.95
2023-01-12T01:19:56.578Z,17.33
2023-01-12T01:22:23.907Z,17.08
2023-01-12T01:24:50.807Z,16.75
2023-01-12T01:27:17.625Z,17.70
2023-01-12T01:29:44.526Z,17.40
2023-01-12T01:32:11.442Z,17.77
2023-01-12T01:34:38.299Z,18.40
2023-01-12T01:37:05.162Z,18.48
2023-01-12T01:39:32.422Z,17.67
2023-01-12T01:42:00.973Z,18.30
2023-01-12T01:44:30.557Z,17.30
2023-01-12T01:47:45.963Z,17.23
2023-01-12T01:50:25.366Z,16.60
2023-01-12T01:53:08.781Z,16.30
2023-01-12T01:55:48.317Z,16.20
2023-01-12T01:58:41.083Z,16.35
2023-01-12T02:01:09.101Z,15.90
2023-01-12T02:03:37.915Z,16.33
2023-01-12T02:06:07.332Z,16.77
2023-01-12T02:09:03.972Z,16.88
2023-01-12T02:11:49.516Z,17.38
2023-01-12T02:14:35.073Z,16.48
2023-01-12T02:18:11.256Z,15.70
2023-01-12T02:20:55.727Z,15.60
2023-01-12T02:23:22.564Z,15.68
2023-01-12T02:26:37.184Z,15.15
2023-01-12T02:29:06.531Z,14.43
2023-01-12T02:32:12.519Z,14.50
2023-01-12T02:35:00.778Z,15.00
2023-01-12T02:37:47.585Z,16.00
2023-01-12T02:40:28.828Z,14.73
2023-01-12T02:43:30.535Z,15.00
2023-01-12T02:46:28.679Z,15.38
2023-01-12T02:49:09.552Z,15.10
2023-01-12T02:51:48.048Z,15.70
2023-01-12T02:54:19.712Z,15.13
2023-01-12T02:57:04.077Z,14.63
2023-01-12T02:59:37.136Z,15.18
2023-01-12T03:04:36.807Z,14.95
2023-01-12T03:07:03.592Z,14.68
2023-01-12T03:09:55.731Z,15.27
2023-01-12T03:12:35.355Z,14.07
2023-01-12T03:15:08.174Z,15.02
2023-01-12T03:18:03.871Z,14.15
2023-01-12T03:20:39.323Z,14.45
2023-01-12T03:23:20.237Z,15.35
2023-01-12T03:25:50.807Z,15.05
2023-01-12T03:28:22.766Z,14.98
2023-01-12T03:31:00.869Z,15.05
2023-01-12T03:33:27.942Z,14.30
2023-01-12T03:36:35.345Z,14.40
2023-01-12T03:39:15.982Z,13.65
2023-01-12T03:41:56.386Z,13.40
2023-01-12T03:44:41.805Z,13.45
2023-01-12T03:47:18.346Z,13.35
2023-01-12T03:49:57.721Z,13.90
2023-01-12T03:52:28.449Z,12.40
2023-01-12T03:54:59.543Z,13.30
2023-01-12T03:57:27.973Z,12.93
2023-01-12T03:59:57.387Z,13.40
2023-01-12T04:02:24.200Z,13.18
2023-01-12T04:04:51.564Z,12.93
2023-01-12T04:07:18.424Z,13.15
2023-01-12T04:09:45.256Z,12.73
2023-01-12T04:12:12.139Z,13.07
2023-01-12T04:14:42.453Z,12.85
2023-01-12T04:17:13.796Z,12.18
2023-01-12T04:19:41.152Z,12.45
2023-01-12T04:22:28.172Z,12.02
2023-01-12T04:24:55.016Z,11.95
2023-01-12T04:27:21.841Z,11.98
2023-01-12T04:29:48.819Z,12.00
2023-01-12T04:32:15.712Z,11.85
2023-01-12T04:34:42.545Z,11.23
2023-01-12T04:37:09.404Z,12.80
2023-01-12T04:39:36.182Z,12.60
2023-01-12T04:42:03.125Z,12.43
2023-01-12T04:44:30.086Z,12.10
2023-01-12T04:46:56.906Z,11.82
2023-01-12T04:49:23.718Z,12.07
2023-01-12T04:51:50.540Z,12.02
2023-01-12T04:54:17.324Z,11.63
2023-01-12T04:56:44.117Z,11.80
2023-01-12T04:59:10.930Z,11.27
2023-01-12T05:01:39.083Z,12.13
2023-01-12T05:04:07.847Z,11.90
2023-01-12T05:06:35.056Z,12.13
2023-01-12T05:09:20.342Z,12.15
2023-01-12T05:11:47.189Z,12.27
2023-01-12T05:14:14.064Z,12.60
2023-01-12T05:16:41.061Z,11.63
2023-01-12T05:19:09.400Z,12.18
2023-01-12T05:21:36.315Z,12.15
2023-01-12T05:24:03.314Z,12.43
2023-01-12T05:26:30.127Z,12.57
2023-01-12T05:28:57.000Z,13.13
2023-01-12T05:31:23.892Z,13.13
2023-01-12T05:33:54.636Z,13.63
2023-01-12T05:36:21.625Z,13.48
2023-01-12T05:38:48.517Z,13.48
2023-01-12T05:41:15.418Z,13.23
2023-01-12T05:43:52.220Z,13.25
2023-01-12T05:46:29.734Z,12.80
2023-01-12T05:48:58.056Z,13.43
2023-01-12T05:51:27.197Z,14.07
2023-01-12T05:53:55.243Z,14.00
2023-01-12T05:56:27.586Z,13.93
2023-01-12T05:59:01.152Z,14.27
2023-01-12T06:01:29.679Z,14.38
2023-01-12T06:04:01.364Z,13.73
2023-01-12T06:06:31.404Z,14.48
2023-01-12T06:09:01.207Z,13.73
2023-01-12T06:11:46.714Z,13.93
2023-01-12T06:14:13.653Z,15.50
2023-01-12T06:16:43.461Z,14.30
2023-01-12T06:19:13.060Z,14.50
2023-01-12T06:21:41.017Z,13.93
2023-01-12T06:24:08.995Z,13.50
2023-01-12T06:26:35.972Z,17.88
2023-01-12T06:29:05.473Z,21.70
2023-01-12T06:31:33.546Z,20.13
2023-01-12T06:34:00.429Z,17.83
2023-01-12T06:36:27.380Z,16.35
2023-01-12T06:38:54.265Z,18.08
2023-01-12T06:41:39.587Z,15.15
2023-01-12T06:44:06.461Z,15.13
2023-01-12T06:46:33.313Z,14.80
2023-01-12T06:49:00.521Z,13.60
2023-01-12T06:51:27.957Z,13.38
2023-01-12T06:53:55.357Z,14.23
2023-01-12T06:56:22.842Z,13.30
2023-01-12T06:58:49.735Z,14.95
2023-01-12T07:01:16.992Z,15.57
2023-01-12T07:03:44.141Z,13.20
2023-01-12T07:06:11.050Z,13.38
2023-01-12T07:08:37.985Z,12.73
2023-01-12T07:11:08.121Z,12.70
2023-01-12T07:13:35.415Z,12.63
2023-01-12T07:16:02.845Z,11.48
2023-01-12T07:18:31.217Z,11.75
2023-01-12T07:20:58.327Z,11.05
2023-01-12T07:23:25.520Z,10.98
2023-01-12T07:25:52.571Z,10.82
2023-01-12T07:28:19.409Z,11.65
2023-01-12T07:30:46.371Z,10.30
2023-01-12T07:33:18.423Z,10.07
2023-01-12T07:35:45.569Z,10.57
2023-01-12T07:38:12.518Z,19.48
2023-01-12T07:40:39.444Z,19.45
2023-01-12T07:43:09.010Z,9.02
2023-01-12T07:45:36.500Z,12.82
2023-01-12T07:48:03.691Z,8.77
2023-01-12T07:50:30.759Z,10.73
2023-01-12T07:53:02.353Z,8.73
2023-01-12T07:55:31.178Z,9.18
2023-01-12T07:58:03.609Z,9.02
2023-01-12T08:00:31.450Z,10.07
2023-01-12T08:03:14.098Z,8.18
2023-01-12T08:05:41.415Z,8.90
2023-01-12T08:08:08.784Z,8.90
2023-01-12T08:10:36.156Z,8.43
2023-01-12T08:13:03.271Z,9.85
2023-01-12T08:15:38.979Z,8.15
2023-01-12T08:18:19.264Z,7.50
2023-01-12T08:20:47.231Z,7.78
2023-01-12T08:23:26.179Z,7.68
2023-01-12T08:26:01.226Z,7.05
2023-01-12T08:28:48.618Z,8.27
2023-01-12T08:33:46.871Z,7.95
2023-01-12T08:36:16.968Z,8.68
2023-01-12T08:38:45.059Z,7.55
2023-01-12T08:41:30.563Z,7.53
2023-01-12T08:44:03.337Z,7.32
2023-01-12T08:46:39.596Z,7.07
2023-01-12T08:49:11.537Z,7.50
2023-01-12T08:51:44.632Z,8.07
2023-01-12T08:54:14.072Z,7.47
2023-01-12T08:56:41.082Z,6.63
2023-01-12T08:59:08.256Z,6.47
2023-01-12T09:01:35.824Z,6.97
2023-01-12T09:04:02.993Z,6.38
2023-01-12T09:06:35.444Z,7.25
2023-01-12T09:09:06.263Z,9.00
2023-01-12T09:11:33.234Z,7.57
2023-01-12T09:14:00.348Z,16.90
2023-01-12T09:16:30.206Z,7.50
2023-01-12T09:18:57.915Z,7.93
2023-01-12T09:21:27.740Z,7.15
2023-01-12T09:23:55.877Z,7.05
2023-01-12T09:26:31.658Z,6.63
2023-01-12T09:29:00.482Z,6.93
2023-01-12T09:31:30.267Z,7.68
2023-01-12T09:33:57.684Z,7.78
2023-01-12T09:36:29.960Z,7.35
2023-01-12T09:38:58.160Z,8.77
2023-01-12T09:41:56.932Z,7.03
2023-01-12T09:44:58.197Z,10.02
2023-01-12T09:47:53.875Z,7.88
2023-01-12T09:50:32.579Z,9.70
2023-01-12T09:53:21.665Z,7.90
2023-01-12T09:56:01.630Z,10.20
2023-01-12T09:58:59.492Z,10.27
2023-01-12T10:01:29.830Z,11.32
2023-01-12T10:04:01.074Z,7.10
2023-01-12T10:06:28.854Z,8.82
2023-01-12T10:09:13.640Z,8.05
2023-01-12T10:12:05.908Z,8.02
2023-01-12T10:14:32.753Z,7.63
2023-01-12T10:17:25.586Z,17.35
2023-01-12T10:20:24.958Z,10.63
2023-01-12T10:22:58.488Z,13.13
2023-01-12T10:25:44.949Z,7.30
2023-01-12T10:28:26.235Z,13.15
2023-01-12T10:30:56.363Z,10.25
2023-01-12T10:33:34.616Z,7.90
2023-01-12T10:36:20.668Z,13.57
2023-01-12T10:38:57.676Z,17.40
2023-01-12T10:41:27.207Z,13.20
2023-01-12T10:43:59.510Z,12.30
2023-01-12T10:46:32.450Z,12.73
2023-01-12T10:49:20.572Z,8.48
2023-01-12T10:52:41.093Z,11.18
2023-01-12T10:55:19.875Z,9.73
2023-01-12T10:57:49.736Z,10.70
2023-01-12T11:00:26.023Z,10.63
2023-01-12T11:02:53.977Z,13.32
2023-01-12T11:05:38.654Z,7.25
2023-01-12T11:08:28.341Z,6.07
2023-01-12T11:10:55.220Z,5.90
2023-01-12T11:13:36.594Z,5.43
2023-01-12T11:16:19.314Z,5.10
2023-01-12T11:19:10.534Z,5.65
2023-01-12T11:21:42.386Z,6.43
2023-01-12T11:24:42.626Z,6.40
2023-01-12T11:27:28.163Z,7.15
2023-01-12T11:30:28.240Z,6.32
2023-01-12T11:33:10.279Z,7.47
2023-01-12T11:36:15.822Z,6.40
2023-01-12T11:38:55.185Z,6.38
2023-01-12T11:41:37.505Z,7.57
2023-01-12T11:44:16.606Z,5.90
2023-01-12T11:47:06.536Z,6.88
2023-01-12T11:49:47.590Z,4.97
2023-01-12T11:52:16.641Z,5.50
2023-01-12T11:54:44.065Z,6.32
2023-01-12T11:57:31.932Z,5.90
2023-01-12T12:00:29.104Z,5.57
2023-01-12T12:03:54.533Z,7.03
2023-01-12T12:06:46.787Z,5.25
2023-01-12T12:09:43.663Z,5.90
2023-01-12T12:12:55.673Z,7.53
2023-01-12T12:15:58.785Z,4.70
2023-01-12T12:19:02.425Z,5.38
2023-01-12T12:22:08.023Z,4.70
2023-01-12T12:25:41.438Z,4.57
2023-01-12T12:28:21.253Z,4.80
2023-01-12T12:30:48.341Z,4.38
2023-01-12T12:33:36.220Z,5.30
2023-01-12T12:36:18.932Z,4.90
2023-01-12T12:39:35.955Z,4.60
2023-01-12T12:42:27.898Z,5.03
2023-01-12T12:45:54.939Z,4.47
2023-01-12T12:48:52.177Z,4.45
2023-01-12T12:51:20.498Z,5.63
2023-01-12T12:53:52.377Z,7.43
2023-01-12T12:56:26.223Z,5.05
2023-01-12T12:58:56.703Z,7.50
2023-01-12T13:01:23.758Z,6.50
2023-01-12T13:03:53.954Z,10.02
2023-01-12T13:06:32.175Z,10.80
2023-01-12T13:09:12.295Z,8.23
2023-01-12T13:12:34.719Z,6.57
2023-01-12T13:15:26.095Z,5.57
2023-01-12T13:17:55.278Z,6.57
2023-01-12T13:20:37.304Z,8.70
2023-01-12T13:23:44.578Z,17.38
2023-01-12T13:26:39.379Z,10.35
2023-01-12T13:29:24.569Z,4.78
2023-01-12T13:32:12.679Z,5.82
2023-01-12T13:34:42.223Z,8.30
2023-01-12T13:37:32.873Z,23.98
2023-01-12T13:40:30.607Z,11.45
2023-01-12T13:43:31.193Z,4.28
2023-01-12T13:46:20.193Z,4.93
2023-01-12T13:48:53.798Z,9.50
2023-01-12T13:51:34.823Z,7.35
2023-01-12T13:54:16.068Z,12.32
2023-01-12T13:56:52.297Z,4.72
2023-01-12T13:59:19.553Z,4.63
2023-01-12T14:01:48.545Z,4.97
2023-01-12T14:04:18.734Z,4.72
2023-01-12T14:07:45.776Z,5.28
2023-01-12T14:10:53.621Z,5.53
2023-01-12T14:14:35.151Z,4.20
2023-01-12T14:17:36.242Z,4.80
2023-01-12T14:20:03.227Z,3.95
2023-01-12T14:22:30.153Z,4.82
2023-01-12T14:25:21.636Z,5.50
2023-01-12T14:27:51.401Z,4.63
2023-01-12T14:30:18.909Z,5.07
2023-01-12T14:32:48.614Z,5.60
2023-01-12T14:35:27.445Z,12.60
2023-01-12T14:38:01.768Z,5.60
2023-01-12T14:40:33.590Z,5.20
2023-01-12T14:43:21.665Z,5.47
2023-01-12T14:46:08.675Z,5.43
2023-01-12T14:48:40.489Z,11.48
2023-01-12T14:51:10.266Z,12.38
2023-01-12T14:53:42.858Z,9.85
2023-01-12T14:56:22.781Z,9.35
2023-01-12T14:58:50.568Z,9.52
2023-01-12T15:01:37.034Z,12.68
2023-01-12T15:04:08.199Z,10.93
2023-01-12T15:06:44.332Z,17.02
2023-01-12T15:09:31.677Z,13.43
2023-01-12T15:11:58.967Z,28.13
2023-01-12T15:14:29.269Z,22.00
2023-01-12T15:17:15.270Z,24.73
2023-01-12T15:20:00.739Z,42.97
2023-01-12T15:22:47.319Z,23.40
2023-01-12T15:25:37.226Z,17.65
2023-01-12T15:28:07.513Z,22.42
2023-01-12T15:30:38.432Z,16.38
2023-01-12T15:33:06.502Z,17.95
2023-01-12T15:35:35.284Z,14.98
2023-01-12T15:38:02.208Z,21.35
2023-01-12T15:40:30.008Z,20.45
2023-01-12T15:42:59.156Z,13.60
2023-01-12T15:45:34.833Z,12.52
2023-01-12T15:48:03.774Z,15.23
2023-01-12T15:50:32.846Z,19.63
2023-01-12T15:53:01.427Z,11.93
2023-01-12T15:55:35.793Z,9.18
2023-01-12T15:58:03.010Z,11.18
2023-01-12T16:00:30.042Z,14.45
2023-01-12T16:02:57.004Z,9.60
2023-01-12T16:05:26.318Z,10.32
2023-01-12T16:07:53.746Z,10.10
2023-01-12T16:10:21.515Z,11.80
2023-01-12T16:12:48.390Z,8.13
2023-01-12T16:15:29.118Z,7.13
2023-01-12T16:17:56.388Z,9.43
2023-01-12T16:20:23.201Z,9.93
2023-01-12T16:22:50.175Z,8.45
2023-01-12T16:25:17.438Z,12.43
2023-01-12T16:27:44.669Z,7.68
2023-01-12T16:30:15.856Z,17.88
2023-01-12T16:32:46.960Z,10.27
2023-01-12T16:35:15.805Z,9.52
2023-01-12T16:37:44.814Z,9.32
2023-01-12T16:40:13.023Z,7.53
2023-01-12T16:42:40.119Z,16.42
2023-01-12T16:45:08.101Z,23.55
2023-01-12T16:47:35.565Z,10.70
2023-01-12T16:50:03.953Z,11.52
2023-01-12T16:52:30.930Z,8.68
2023-01-12T16:54:58.492Z,7.72
2023-01-12T16:57:25.855Z,10.63
2023-01-12T16:59:53.490Z,11.13
2023-01-12T17:02:21.667Z,11.57
2023-01-12T17:04:52.892Z,17.05
2023-01-12T17:07:21.469Z,14.25
2023-01-12T17:09:49.441Z,8.80
2023-01-12T17:12:17.614Z,15.48
2023-01-12T17:14:46.072Z,11.07
2023-01-12T17:17:13.892Z,15.88
2023-01-12T17:19:47.255Z,33.92
2023-01-12T17:22:15.324Z,21.77
2023-01-12T17:24:42.950Z,21.60
2023-01-12T17:27:11.440Z,20.17
2023-01-12T17:29:39.021Z,16.17
2023-01-12T17:32:07.922Z,9.45
2023-01-12T17:34:38.985Z,13.52
2023-01-12T17:37:11.034Z,9.57
2023-01-12T17:39:43.245Z,9.30
2023-01-12T17:42:34.714Z,9.32
2023-01-12T17:45:02.555Z,10.68
2023-01-12T17:47:30.181Z,6.25
2023-01-12T17:49:57.226Z,11.98
2023-01-12T17:52:24.414Z,10.20
2023-01-12T17:54:51.744Z,8.70
2023-01-12T17:57:18.820Z,9.25
2023-01-12T17:59:45.827Z,11.55
2023-01-12T18:02:14.890Z,6.53
2023-01-12T18:04:42.153Z,7.50
2023-01-12T18:07:09.753Z,6.15
2023-01-12T18:09:37.164Z,6.57
2023-01-12T18:12:05.429Z,9.13
2023-01-12T18:14:32.737Z,9.70
2023-01-12T18:17:01.661Z,7.00
2023-01-12T18:19:30.470Z,8.10
2023-01-12T18:21:59.515Z,6.63
2023-01-12T18:24:27.808Z,7.78
2023-01-12T18:26:55.289Z,7.22
2023-01-12T18:29:22.754Z,6.40
2023-01-12T18:31:50.007Z,8.25
2023-01-12T18:34:19.495Z,7.45
2023-01-12T18:36:48.221Z,8.10
2023-01-12T18:39:21.640Z,5.95
2023-01-12T18:42:08.688Z,5.47
2023-01-12T18:44:36.822Z,7.65
2023-01-12T18:47:22.747Z,5.38
2023-01-12T18:49:50.684Z,6.10
2023-01-12T18:52:37.561Z,5.35
2023-01-12T18:55:06.449Z,5.28
2023-01-12T18:57:34.418Z,5.80
2023-01-12T19:00:14.937Z,4.95
2023-01-12T19:02:42.103Z,6.45
2023-01-12T19:05:47.279Z,6.13
2023-01-12T19:08:29.301Z,5.20
2023-01-12T19:11:07.149Z,5.80
2023-01-12T19:13:53.583Z,7.75
2023-01-12T19:16:41.405Z,10.93
2023-01-12T19:19:08.868Z,7.47
2023-01-12T19:21:55.272Z,10.27
2023-01-12T19:24:41.194Z,8.25
2023-01-12T19:27:31.377Z,8.48
2023-01-12T19:29:58.454Z,8.15
2023-01-12T19:46:34.510Z,13.20
2023-01-12T19:49:01.540Z,11.60
2023-01-12T19:51:28.407Z,27.60
2023-01-12T19:53:55.544Z,20.70
2023-01-12T19:56:22.623Z,13.38
2023-01-12T19:58:50.692Z,18.40
2023-01-12T20:01:23.173Z,12.07
2023-01-12T20:03:51.114Z,13.80
2023-01-12T20:06:18.616Z,13.73
2023-01-12T20:08:45.723Z,13.90
2023-01-12T20:11:13.646Z,13.90
2023-01-12T20:13:40.698Z,13.80
2023-01-12T20:16:10.538Z,15.20
2023-01-12T20:18:37.662Z,19.58
2023-01-12T20:21:09.955Z,10.70
2023-01-12T20:23:36.893Z,12.95
2023-01-12T20:26:09.066Z,10.85
2023-01-12T20:28:36.132Z,9.57
2023-01-12T20:31:13.150Z,10.73
2023-01-12T20:33:40.661Z,9.55
2023-01-12T20:36:14.469Z,10.07
2023-01-12T20:38:42.873Z,12.18
2023-01-12T20:41:10.856Z,10.15
2023-01-12T20:43:38.373Z,9.57
2023-01-12T20:46:11.599Z,14.77
2023-01-12T20:48:43.052Z,10.32
2023-01-12T20:51:16.428Z,10.98
2023-01-12T20:53:44.321Z,13.85
2023-01-12T20:56:11.392Z,11.00
2023-01-12T20:58:38.396Z,6.75
2023-01-12T21:01:11.987Z,7.30
2023-01-12T21:03:39.114Z,7.22
2023-01-12T21:06:11.850Z,8.05
2023-01-12T21:08:40.596Z,11.82
2023-01-12T21:11:07.827Z,8.25
2023-01-12T21:13:34.826Z,10.82
2023-01-12T21:16:04.914Z,6.88
2023-01-12T21:18:33.755Z,7.15
2023-01-12T21:21:01.764Z,10.63
2023-01-12T21:23:28.900Z,8.60
2023-01-12T21:25:55.829Z,7.20
2023-01-12T21:28:23.581Z,8.23
2023-01-12T21:30:50.965Z,7.65
2023-01-12T21:33:17.917Z,9.35
2023-01-12T21:35:53.773Z,8.38
2023-01-12T21:38:21.125Z,9.20
2023-01-12T21:40:48.028Z,9.60
2023-01-12T21:43:17.961Z,8.80
2023-01-12T21:45:48.865Z,7.95
2023-01-12T21:48:18.335Z,9.32
2023-01-12T21:50:45.364Z,8.52
2023-01-12T21:53:19.932Z,20.08
2023-01-12T21:55:56.759Z,9.18
2023-01-12T21:58:25.437Z,9.30
2023-01-12T22:00:53.493Z,8.05
2023-01-12T22:03:25.144Z,6.82
2023-01-12T22:05:53.168Z,8.60
2023-01-12T22:08:21.042Z,9.07
2023-01-12T22:10:48.394Z,8.15
2023-01-12T22:13:17.589Z,6.50
2023-01-12T22:15:45.039Z,6.72
2023-01-12T22:18:11.894Z,7.55
2023-01-12T22:20:38.772Z,8.30
2023-01-12T22:23:05.803Z,8.65
2023-01-12T22:25:32.742Z,9.93
2023-01-12T22:27:59.687Z,7.25
2023-01-12T22:30:27.885Z,7.18
2023-01-12T22:32:56.030Z,8.60
2023-01-12T22:35:23.187Z,5.68
2023-01-12T22:37:50.040Z,7.90
2023-01-12T22:40:17.314Z,7.70
2023-01-12T22:43:02.740Z,8.20
2023-01-12T22:45:29.649Z,6.75
2023-01-12T22:47:57.099Z,6.47
2023-01-12T22:50:24.792Z,8.48
2023-01-12T22:52:56.325Z,6.57
2023-01-12T22:55:25.127Z,5.90
2023-01-12T22:57:55.034Z,6.97
2023-01-12T23:00:22.249Z,6.43
2023-01-12T23:03:01.625Z,7.15
2023-01-12T23:05:35.720Z,6.00
2023-01-12T23:08:05.201Z,7.22
2023-01-12T23:10:33.063Z,6.75
2023-01-12T23:13:14.012Z,5.80
2023-01-12T23:15:46.190Z,6.32
2023-01-12T23:18:17.346Z,5.50
2023-01-12T23:20:44.980Z,8.00
2023-01-12T23:23:12.492Z,6.72
2023-01-12T23:25:39.730Z,5.40
2023-01-12T23:28:08.046Z,5.50
2023-01-12T23:30:35.328Z,5.35
2023-01-12T23:33:04.595Z,5.78
2023-01-12T23:35:40.032Z,6.25
2023-01-12T23:38:14.121Z,6.65
2023-01-12T23:40:41.284Z,5.50
2023-01-12T23:43:09.274Z,5.97
2023-01-12T23:45:36.283Z,5.57
2023-01-12T23:48:03.576Z,5.40
2023-01-12T23:50:30.444Z,5.65
2023-01-12T23:52:57.338Z,5.68
2023-01-12T23:55:25.980Z,5.38
2023-01-12T23:57:53.239Z,6.05
